sensor_id;sensor_type;location;lat;lon;timestamp;pressure;altitude;pressure_sealevel;temperature;humidity
58622;BME280;44389;51.578;5.456;2023-02-19T00:02:20;101690.34;;;9.21;100.00
58622;BME280;44389;51.578;5.456;2023-02-19T00:04:45;101686.69;;;9.16;100.00
58622;BME280;44389;51.578;5.456;2023-02-19T00:07:10;101699.28;;;9.11;100.00
58622;BME280;44389;51.578;5.456;2023-02-19T00:09:36;101697.38;;;9.07;100.00
58622;BME280;44389;51.578;5.456;2023-02-19T00:12:01;101699.97;;;9.07;100.00
58622;BME280;44389;51.578;5.456;2023-02-19T00:14:26;101695.41;;;9.01;100.00
58622;BME280;44389;51.578;5.456;2023-02-19T00:16:51;101689.53;;;9.04;100.00
58622;BME280;44389;51.578;5.456;2023-02-19T00:19:18;101688.56;;;9.02;100.00
58622;BME280;44389;51.578;5.456;2023-02-19T00:21:44;101696.22;;;9.00;100.00
58622;BME280;44389;51.578;5.456;2023-02-19T00:24:11;101693.63;;;9.00;100.00
58622;BME280;44389;51.578;5.456;2023-02-19T00:26:38;101689.38;;;9.01;100.00
58622;BME280;44389;51.578;5.456;2023-02-19T00:29:04;101697.88;;;9.00;100.00
58622;BME280;44389;51.578;5.456;2023-02-19T00:31:31;101697.06;;;9.01;100.00
58622;BME280;44389;51.578;5.456;2023-02-19T00:33:59;101699.56;;;8.99;100.00
58622;BME280;44389;51.578;5.456;2023-02-19T00:36:26;101704.78;;;9.01;100.00
58622;BME280;44389;51.578;5.456;2023-02-19T00:38:51;101704.78;;;9.01;100.00
58622;BME280;44389;51.578;5.456;2023-02-19T00:41:18;101700.44;;;9.00;100.00
58622;BME280;44389;51.578;5.456;2023-02-19T00:43:55;101702.22;;;9.01;100.00
58622;BME280;44389;51.578;5.456;2023-02-19T00:46:23;101702.06;;;8.98;100.00
58622;BME280;44389;51.578;5.456;2023-02-19T00:48:48;101704.97;;;9.04;100.00
58622;BME280;44389;51.578;5.456;2023-02-19T00:51:14;101704.78;;;9.01;100.00
58622;BME280;44389;51.578;5.456;2023-02-19T00:53:40;101709.00;;;8.99;100.00
58622;BME280;44389;51.578;5.456;2023-02-19T00:56:06;101709.00;;;8.99;100.00
58622;BME280;44389;51.578;5.456;2023-02-19T00:58:31;101708.25;;;9.01;100.00
58622;BME280;44389;51.578;5.456;2023-02-19T01:00:56;101710.84;;;9.01;100.00
58622;BME280;44389;51.578;5.456;2023-02-19T01:03:22;101712.56;;;9.02;100.00
58622;BME280;44389;51.578;5.456;2023-02-19T01:05:48;101716.03;;;9.03;100.00
58622;BME280;44389;51.578;5.456;2023-02-19T01:08:14;101714.41;;;9.05;100.00
58622;BME280;44389;51.578;5.456;2023-02-19T01:10:39;101716.03;;;9.03;100.00
58622;BME280;44389;51.578;5.456;2023-02-19T01:13:05;101721.31;;;9.06;100.00
58622;BME280;44389;51.578;5.456;2023-02-19T01:15:32;101716.03;;;9.03;100.00
58622;BME280;44389;51.578;5.456;2023-02-19T01:17:57;101721.19;;;9.03;100.00
58622;BME280;44389;51.578;5.456;2023-02-19T01:20:22;101725.44;;;9.02;100.00
58622;BME280;44389;51.578;5.456;2023-02-19T01:22:48;101725.34;;;9.01;100.00
58622;BME280;44389;51.578;5.456;2023-02-19T01:25:13;101736.44;;;9.00;100.00
58622;BME280;44389;51.578;5.456;2023-02-19T01:27:38;101737.34;;;9.00;100.00
58622;BME280;44389;51.578;5.456;2023-02-19T01:30:04;101746.72;;;9.00;100.00
58622;BME280;44389;51.578;5.456;2023-02-19T01:32:29;101740.66;;;8.98;100.00
58622;BME280;44389;51.578;5.456;2023-02-19T01:34:55;101745.00;;;8.99;100.00
58622;BME280;44389;51.578;5.456;2023-02-19T01:37:20;101741.44;;;8.97;100.00
58622;BME280;44389;51.578;5.456;2023-02-19T01:39:46;101738.81;;;8.95;100.00
58622;BME280;44389;51.578;5.456;2023-02-19T01:42:15;101739.66;;;8.96;100.00
58622;BME280;44389;51.578;5.456;2023-02-19T01:47:06;101755.09;;;8.96;100.00
58622;BME280;44389;51.578;5.456;2023-02-19T01:49:39;101755.09;;;8.96;100.00
58622;BME280;44389;51.578;5.456;2023-02-19T01:52:13;101755.81;;;8.93;100.00
58622;BME280;44389;51.578;5.456;2023-02-19T01:54:42;101758.31;;;8.92;100.00
58622;BME280;44389;51.578;5.456;2023-02-19T01:57:10;101752.59;;;8.97;100.00
58622;BME280;44389;51.578;5.456;2023-02-19T01:59:37;101750.94;;;8.98;100.00
58622;BME280;44389;51.578;5.456;2023-02-19T02:02:03;101738.06;;;8.98;100.00
58622;BME280;44389;51.578;5.456;2023-02-19T02:04:29;101743.28;;;8.99;100.00
58622;BME280;44389;51.578;5.456;2023-02-19T02:06:54;101745.06;;;9.00;100.00
58622;BME280;44389;51.578;5.456;2023-02-19T02:09:22;101739.84;;;8.99;100.00
58622;BME280;44389;51.578;5.456;2023-02-19T02:12:07;101736.44;;;9.00;100.00
58622;BME280;44389;51.578;5.456;2023-02-19T02:14:33;101748.44;;;8.99;100.00
58622;BME280;44389;51.578;5.456;2023-02-19T02:22:18;101745.00;;;8.99;100.00
58622;BME280;44389;51.578;5.456;2023-02-19T02:27:38;101750.03;;;8.97;100.00
58622;BME280;44389;51.578;5.456;2023-02-19T02:30:22;101743.94;;;8.95;100.00
58622;BME280;44389;51.578;5.456;2023-02-19T02:35:48;101753.31;;;8.95;100.00
58622;BME280;44389;51.578;5.456;2023-02-19T02:38:15;101754.06;;;8.92;100.00
58622;BME280;44389;51.578;5.456;2023-02-19T02:40:42;101746.25;;;8.90;100.00
58622;BME280;44389;51.578;5.456;2023-02-19T02:43:09;101747.06;;;8.89;100.00
58622;BME280;44389;51.578;5.456;2023-02-19T02:45:34;101751.25;;;8.87;100.00
58622;BME280;44389;51.578;5.456;2023-02-19T02:48:00;101746.13;;;8.87;100.00
58622;BME280;44389;51.578;5.456;2023-02-19T02:50:29;101751.09;;;8.84;100.00
58622;BME280;44389;51.578;5.456;2023-02-19T02:52:58;101754.50;;;8.83;100.00
58622;BME280;44389;51.578;5.456;2023-02-19T02:55:58;101760.44;;;8.82;100.00
58622;BME280;44389;51.578;5.456;2023-02-19T02:58:24;101754.31;;;8.80;100.00
58622;BME280;44389;51.578;5.456;2023-02-19T03:00:52;101764.59;;;8.80;100.00
58622;BME280;44389;51.578;5.456;2023-02-19T03:03:37;101769.59;;;8.77;100.00
58622;BME280;44389;51.578;5.456;2023-02-19T03:06:04;101766.88;;;8.74;100.00
58622;BME280;44389;51.578;5.456;2023-02-19T03:08:33;101771.75;;;8.69;100.00
58622;BME280;44389;51.578;5.456;2023-02-19T03:11:10;101764.69;;;8.65;100.00
58622;BME280;44389;51.578;5.456;2023-02-19T03:13:56;101771.44;;;8.63;100.00
58622;BME280;44389;51.578;5.456;2023-02-19T03:16:54;101780.84;;;8.63;100.00
58622;BME280;44389;51.578;5.456;2023-02-19T03:19:40;101782.63;;;8.64;100.00
58622;BME280;44389;51.578;5.456;2023-02-19T03:22:08;101780.66;;;8.60;100.00
58622;BME280;44389;51.578;5.456;2023-02-19T03:24:40;101778.94;;;8.59;100.00
58622;BME280;44389;51.578;5.456;2023-02-19T03:27:26;101775.22;;;8.53;100.00
58622;BME280;44389;51.578;5.456;2023-02-19T03:29:53;101786.13;;;8.49;100.00
58622;BME280;44389;51.578;5.456;2023-02-19T03:32:20;101778.25;;;8.46;100.00
58622;BME280;44389;51.578;5.456;2023-02-19T03:34:55;101782.31;;;8.43;100.00
58622;BME280;44389;51.578;5.456;2023-02-19T03:37:38;101789.16;;;8.42;100.00
58622;BME280;44389;51.578;5.456;2023-02-19T03:40:05;101787.38;;;8.41;100.00
58622;BME280;44389;51.578;5.456;2023-02-19T03:46:01;101789.78;;;8.38;100.00
58622;BME280;44389;51.578;5.456;2023-02-19T03:53:16;101794.22;;;8.40;100.00
58622;BME280;44389;51.578;5.456;2023-02-19T04:00:52;101804.72;;;8.45;100.00
58622;BME280;44389;51.578;5.456;2023-02-19T04:03:23;101820.25;;;8.47;100.00
58622;BME280;44389;51.578;5.456;2023-02-19T04:05:52;101814.22;;;8.46;100.00
58622;BME280;44389;51.578;5.456;2023-02-19T04:08:19;101821.28;;;8.50;100.00
58622;BME280;44389;51.578;5.456;2023-02-19T04:10:45;101825.91;;;8.56;100.00
58622;BME280;44389;51.578;5.456;2023-02-19T04:13:15;101840.41;;;8.55;100.00
58622;BME280;44389;51.578;5.456;2023-02-19T04:15:43;101841.31;;;8.56;100.00
58622;BME280;44389;51.578;5.456;2023-02-19T04:18:11;101834.56;;;8.58;100.00
58622;BME280;44389;51.578;5.456;2023-02-19T04:20:39;101837.13;;;8.58;100.00
58622;BME280;44389;51.578;5.456;2023-02-19T04:23:06;101846.44;;;8.56;100.00
58622;BME280;44389;51.578;5.456;2023-02-19T04:25:31;101840.41;;;8.55;100.00
58622;BME280;44389;51.578;5.456;2023-02-19T04:27:57;101845.47;;;8.54;100.00
58622;BME280;44389;51.578;5.456;2023-02-19T04:30:22;101855.66;;;8.52;100.00
58622;BME280;44389;51.578;5.456;2023-02-19T04:32:47;101849.63;;;8.52;100.00
58622;BME280;44389;51.578;5.456;2023-02-19T04:35:13;101856.38;;;8.50;100.00
58622;BME280;44389;51.578;5.456;2023-02-19T04:37:38;101856.31;;;8.48;100.00
58622;BME280;44389;51.578;5.456;2023-02-19T04:40:03;101858.88;;;8.48;100.00
58622;BME280;44389;51.578;5.456;2023-02-19T04:42:28;101858.06;;;8.49;100.00
58622;BME280;44389;51.578;5.456;2023-02-19T04:44:54;101867.53;;;8.50;100.00
58622;BME280;44389;51.578;5.456;2023-02-19T04:47:19;101877.81;;;8.50;100.00
58622;BME280;44389;51.578;5.456;2023-02-19T04:49:44;101881.19;;;8.49;100.00
58622;BME280;44389;51.578;5.456;2023-02-19T04:52:10;101882.81;;;8.47;100.00
58622;BME280;44389;51.578;5.456;2023-02-19T04:54:35;101894.63;;;8.45;100.00
58622;BME280;44389;51.578;5.456;2023-02-19T04:57:00;101894.63;;;8.45;100.00
58622;BME280;44389;51.578;5.456;2023-02-19T04:59:25;101900.47;;;8.43;100.00
58622;BME280;44389;51.578;5.456;2023-02-19T05:01:50;101900.41;;;8.41;100.00
58622;BME280;44389;51.578;5.456;2023-02-19T05:04:16;101904.56;;;8.39;100.00
58622;BME280;44389;51.578;5.456;2023-02-19T05:06:41;101904.56;;;8.39;100.00
58622;BME280;44389;51.578;5.456;2023-02-19T05:09:06;101907.84;;;8.36;100.00
58622;BME280;44389;51.578;5.456;2023-02-19T05:11:31;101917.25;;;8.36;100.00
58622;BME280;44389;51.578;5.456;2023-02-19T05:13:56;101919.66;;;8.33;100.00
58622;BME280;44389;51.578;5.456;2023-02-19T05:16:22;101919.53;;;8.31;100.00
58622;BME280;44389;51.578;5.456;2023-02-19T05:18:47;101925.50;;;8.30;100.00
58622;BME280;44389;51.578;5.456;2023-02-19T05:21:12;101927.97;;;8.29;100.00
58622;BME280;44389;51.578;5.456;2023-02-19T05:23:38;101922.66;;;8.26;100.00
58622;BME280;44389;51.578;5.456;2023-02-19T05:26:04;101931.88;;;8.22;100.00
58622;BME280;44389;51.578;5.456;2023-02-19T05:28:29;101929.22;;;8.20;100.00
58622;BME280;44389;51.578;5.456;2023-02-19T05:30:55;101930.72;;;8.17;100.00
58622;BME280;44389;51.578;5.456;2023-02-19T05:33:22;101932.16;;;8.12;100.00
58622;BME280;44389;51.578;5.456;2023-02-19T05:35:48;101934.56;;;8.08;100.00
58622;BME280;44389;51.578;5.456;2023-02-19T05:38:14;101933.66;;;8.08;100.00
58622;BME280;44389;51.578;5.456;2023-02-19T05:40:40;101934.28;;;8.04;100.00
58622;BME280;44389;51.578;5.456;2023-02-19T05:43:05;101947.81;;;8.01;100.00
58622;BME280;44389;51.578;5.456;2023-02-19T05:45:31;101951.09;;;7.99;100.00
58622;BME280;44389;51.578;5.456;2023-02-19T05:47:56;101946.59;;;7.95;100.00
58622;BME280;44389;51.578;5.456;2023-02-19T05:50:21;101942.25;;;7.94;100.00
58622;BME280;44389;51.578;5.456;2023-02-19T05:52:46;101951.44;;;7.90;100.00
58622;BME280;44389;51.578;5.456;2023-02-19T05:55:12;101954.63;;;7.86;100.00
58622;BME280;44389;51.578;5.456;2023-02-19T05:57:40;101952.78;;;7.83;100.00
58622;BME280;44389;51.578;5.456;2023-02-19T06:00:07;101945.00;;;7.82;100.00
58622;BME280;44389;51.578;5.456;2023-02-19T06:02:32;101943.13;;;7.79;100.00
58622;BME280;44389;51.578;5.456;2023-02-19T06:04:57;101939.69;;;7.79;100.00
58622;BME280;44389;51.578;5.456;2023-02-19T06:07:23;101937.91;;;7.78;100.00
58622;BME280;44389;51.578;5.456;2023-02-19T06:09:51;101939.50;;;7.75;100.00
58622;BME280;44389;51.578;5.456;2023-02-19T06:12:16;101940.19;;;7.73;100.00
58622;BME280;44389;51.578;5.456;2023-02-19T06:14:41;101949.50;;;7.71;100.00
58622;BME280;44389;51.578;5.456;2023-02-19T06:17:06;101951.09;;;7.69;100.00
58622;BME280;44389;51.578;5.456;2023-02-19T06:19:31;101959.47;;;7.66;100.00
58622;BME280;44389;51.578;5.456;2023-02-19T06:21:56;101957.72;;;7.65;100.00
58622;BME280;44389;51.578;5.456;2023-02-19T06:24:22;101968.66;;;7.63;100.00
58622;BME280;44389;51.578;5.456;2023-02-19T06:26:47;101961.88;;;7.63;100.00
58622;BME280;44389;51.578;5.456;2023-02-19T06:29:12;101963.53;;;7.63;100.00
58622;BME280;44389;51.578;5.456;2023-02-19T06:31:37;101968.66;;;7.63;100.00
58622;BME280;44389;51.578;5.456;2023-02-19T06:34:03;101965.31;;;7.64;100.00
58622;BME280;44389;51.578;5.456;2023-02-19T06:36:28;101975.59;;;7.64;100.00
58622;BME280;44389;51.578;5.456;2023-02-19T06:38:58;101985.84;;;7.64;100.00
58622;BME280;44389;51.578;5.456;2023-02-19T06:41:23;101994.31;;;7.63;100.00
58622;BME280;44389;51.578;5.456;2023-02-19T06:43:48;101999.47;;;7.63;100.00
58622;BME280;44389;51.578;5.456;2023-02-19T06:46:13;101985.66;;;7.61;100.00
58622;BME280;44389;51.578;5.456;2023-02-19T06:48:39;102002.72;;;7.60;100.00
58622;BME280;44389;51.578;5.456;2023-02-19T06:51:05;101996.72;;;7.60;100.00
58622;BME280;44389;51.578;5.456;2023-02-19T06:53:30;102003.63;;;7.61;100.00
58622;BME280;44389;51.578;5.456;2023-02-19T06:55:59;102005.38;;;7.62;100.00
58622;BME280;44389;51.578;5.456;2023-02-19T06:58:25;102006.38;;;7.64;100.00
58622;BME280;44389;51.578;5.456;2023-02-19T07:00:51;102009.94;;;7.66;100.00
58622;BME280;44389;51.578;5.456;2023-02-19T07:03:16;102007.38;;;7.66;100.00
58622;BME280;44389;51.578;5.456;2023-02-19T07:05:41;102012.56;;;7.67;100.00
58622;BME280;44389;51.578;5.456;2023-02-19T07:08:07;102014.25;;;7.67;100.00
58622;BME280;44389;51.578;5.456;2023-02-19T07:10:33;102020.19;;;7.66;100.00
58622;BME280;44389;51.578;5.456;2023-02-19T07:12:58;102018.41;;;7.65;100.00
58622;BME280;44389;51.578;5.456;2023-02-19T07:15:23;102029.47;;;7.64;100.00
58622;BME280;44389;51.578;5.456;2023-02-19T07:17:48;102039.72;;;7.64;100.00
58622;BME280;44389;51.578;5.456;2023-02-19T07:20:13;102038.84;;;7.63;100.00
58622;BME280;44389;51.578;5.456;2023-02-19T07:22:38;102041.41;;;7.63;100.00
58622;BME280;44389;51.578;5.456;2023-02-19T07:25:04;102038.72;;;7.62;100.00
58622;BME280;44389;51.578;5.456;2023-02-19T07:27:29;102054.94;;;7.61;100.00
58622;BME280;44389;51.578;5.456;2023-02-19T07:29:54;102054.81;;;7.59;100.00
58622;BME280;44389;51.578;5.456;2023-02-19T07:32:19;102064.22;;;7.58;100.00
58622;BME280;44389;51.578;5.456;2023-02-19T07:34:44;102067.47;;;7.56;100.00
58622;BME280;44389;51.578;5.456;2023-02-19T07:37:10;102069.16;;;7.55;100.00
58622;BME280;44389;51.578;5.456;2023-02-19T07:39:35;102074.31;;;7.55;100.00
58622;BME280;44389;51.578;5.456;2023-02-19T07:42:00;102073.47;;;7.56;100.00
58622;BME280;44389;51.578;5.456;2023-02-19T07:44:25;102077.84;;;7.57;100.00
58622;BME280;44389;51.578;5.456;2023-02-19T07:46:50;102082.19;;;7.58;100.00
58622;BME280;44389;51.578;5.456;2023-02-19T07:49:16;102091.66;;;7.60;100.00
58622;BME280;44389;51.578;5.456;2023-02-19T07:51:41;102100.22;;;7.60;100.00
58622;BME280;44389;51.578;5.456;2023-02-19T07:54:07;102098.56;;;7.61;100.00
58622;BME280;44389;51.578;5.456;2023-02-19T07:56:33;102106.25;;;7.61;100.00
58622;BME280;44389;51.578;5.456;2023-02-19T07:58:58;102116.63;;;7.62;100.00
58622;BME280;44389;51.578;5.456;2023-02-19T08:01:24;102120.84;;;7.62;100.00
58622;BME280;44389;51.578;5.456;2023-02-19T08:04:09;102118.47;;;7.65;100.00
58622;BME280;44389;51.578;5.456;2023-02-19T08:06:35;102117.88;;;7.69;100.00
58622;BME280;44389;51.578;5.456;2023-02-19T08:09:00;102126.44;;;7.69;100.00
58622;BME280;44389;51.578;5.456;2023-02-19T08:11:26;102129.13;;;7.71;100.00
58622;BME280;44389;51.578;5.456;2023-02-19T08:14:09;102130.88;;;7.72;100.00
58622;BME280;44389;51.578;5.456;2023-02-19T08:16:35;102128.13;;;7.69;100.00
58622;BME280;44389;51.578;5.456;2023-02-19T08:19:00;102131.50;;;7.68;100.00
58622;BME280;44389;51.578;5.456;2023-02-19T08:21:25;102135.94;;;7.70;100.00
58622;BME280;44389;51.578;5.456;2023-02-19T08:23:50;102140.34;;;7.73;100.00
58622;BME280;44389;51.578;5.456;2023-02-19T08:26:15;102140.56;;;7.76;100.00
58622;BME280;44389;51.578;5.456;2023-02-19T08:28:41;102149.31;;;7.80;100.00
58622;BME280;44389;51.578;5.456;2023-02-19T08:31:07;102149.63;;;7.84;100.00
58622;BME280;44389;51.578;5.456;2023-02-19T08:33:33;102161.22;;;7.93;100.00
58622;BME280;44389;51.578;5.456;2023-02-19T08:36:05;102157.28;;;7.98;100.00
58622;BME280;44389;51.578;5.456;2023-02-19T08:38:32;102155.69;;;8.00;100.00
58622;BME280;44389;51.578;5.456;2023-02-19T08:41:02;102154.13;;;8.02;100.00
58622;BME280;44389;51.578;5.456;2023-02-19T08:43:27;102153.50;;;8.06;100.00
58622;BME280;44389;51.578;5.456;2023-02-19T08:45:52;102157.84;;;8.07;100.00
58622;BME280;44389;51.578;5.456;2023-02-19T08:48:18;102158.91;;;8.11;100.00
58622;BME280;44389;51.578;5.456;2023-02-19T08:50:43;102168.31;;;8.10;100.00
58622;BME280;44389;51.578;5.456;2023-02-19T08:53:09;102162.28;;;8.10;100.00
58622;BME280;44389;51.578;5.456;2023-02-19T08:55:35;102164.84;;;8.10;100.00
58622;BME280;44389;51.578;5.456;2023-02-19T08:58:00;102174.44;;;8.12;100.00
58622;BME280;44389;51.578;5.456;2023-02-19T09:00:26;102183.09;;;8.14;100.00
58622;BME280;44389;51.578;5.456;2023-02-19T09:02:51;102176.66;;;8.21;100.00
58622;BME280;44389;51.578;5.456;2023-02-19T09:05:16;102191.25;;;8.22;100.00
58622;BME280;44389;51.578;5.456;2023-02-19T09:07:41;102189.94;;;8.29;100.00
58622;BME280;44389;51.578;5.456;2023-02-19T09:10:08;102180.34;;;8.39;100.00
58622;BME280;44389;51.578;5.456;2023-02-19T09:12:34;102188.91;;;8.53;100.00
58622;BME280;44389;51.578;5.456;2023-02-19T09:14:59;102188.84;;;8.67;100.00
58622;BME280;44389;51.578;5.456;2023-02-19T09:17:25;102192.03;;;8.78;100.00
58622;BME280;44389;51.578;5.456;2023-02-19T09:19:50;102187.59;;;8.90;100.00
58622;BME280;44389;51.578;5.456;2023-02-19T09:22:16;102188.06;;;8.98;100.00
58622;BME280;44389;51.578;5.456;2023-02-19T09:24:41;102184.06;;;9.03;100.00
58622;BME280;44389;51.578;5.456;2023-02-19T09:27:06;102183.84;;;9.00;100.00
58622;BME280;44389;51.578;5.456;2023-02-19T09:29:32;102187.06;;;8.96;100.00
58622;BME280;44389;51.578;5.456;2023-02-19T09:31:59;102197.69;;;8.87;100.00
58622;BME280;44389;51.578;5.456;2023-02-19T09:34:25;102201.97;;;8.86;100.00
58622;BME280;44389;51.578;5.456;2023-02-19T09:36:51;102208.34;;;8.93;100.00
58622;BME280;44389;51.578;5.456;2023-02-19T09:39:16;102211.97;;;8.97;100.00
58622;BME280;44389;51.578;5.456;2023-02-19T09:41:42;102208.88;;;9.02;100.00
58622;BME280;44389;51.578;5.456;2023-02-19T09:44:12;102200.72;;;9.10;100.00
58622;BME280;44389;51.578;5.456;2023-02-19T09:46:42;102197.53;;;9.14;100.00
58622;BME280;44389;51.578;5.456;2023-02-19T09:49:22;102203.56;;;9.14;100.00
58622;BME280;44389;51.578;5.456;2023-02-19T09:51:58;102218.38;;;9.18;100.00
58622;BME280;44389;51.578;5.456;2023-02-19T09:54:28;102234.75;;;9.20;100.00
58622;BME280;44389;51.578;5.456;2023-02-19T09:56:54;102246.47;;;9.15;100.00
58622;BME280;44389;51.578;5.456;2023-02-19T09:59:24;102247.53;;;9.19;100.00
58622;BME280;44389;51.578;5.456;2023-02-19T10:01:51;102257.13;;;9.21;100.00
58622;BME280;44389;51.578;5.456;2023-02-19T10:04:17;102263.50;;;9.28;100.00
58622;BME280;44389;51.578;5.456;2023-02-19T10:06:42;102264.06;;;9.37;100.00
58622;BME280;44389;51.578;5.456;2023-02-19T10:09:21;102265.09;;;9.41;100.00
58622;BME280;44389;51.578;5.456;2023-02-19T10:11:48;102272.09;;;9.44;100.00
58622;BME280;44389;51.578;5.456;2023-02-19T10:14:15;102277.38;;;9.45;100.00
58622;BME280;44389;51.578;5.456;2023-02-19T10:16:42;102274.16;;;9.49;100.00
58622;BME280;44389;51.578;5.456;2023-02-19T10:19:12;102276.81;;;9.51;100.00
58622;BME280;44389;51.578;5.456;2023-02-19T10:21:37;102294.03;;;9.52;100.00
58622;BME280;44389;51.578;5.456;2023-02-19T10:24:03;102295.47;;;9.47;100.00
58622;BME280;44389;51.578;5.456;2023-02-19T10:26:29;102294.56;;;9.46;100.00
58622;BME280;44389;51.578;5.456;2023-02-19T10:29:01;102293.03;;;9.50;100.00
58622;BME280;44389;51.578;5.456;2023-02-19T10:31:26;102294.19;;;9.55;100.00
58622;BME280;44389;51.578;5.456;2023-02-19T10:33:52;102302.19;;;9.60;100.00
58622;BME280;44389;51.578;5.456;2023-02-19T10:36:23;102314.88;;;9.71;100.00
58622;BME280;44389;51.578;5.456;2023-02-19T10:38:49;102329.97;;;9.80;100.00
58622;BME280;44389;51.578;5.456;2023-02-19T10:41:15;102328.97;;;9.78;100.00
58622;BME280;44389;51.578;5.456;2023-02-19T10:43:42;102332.72;;;9.68;100.00
58622;BME280;44389;51.578;5.456;2023-02-19T10:46:18;102333.97;;;9.60;100.00
58622;BME280;44389;51.578;5.456;2023-02-19T10:48:45;102335.28;;;9.53;100.00
58622;BME280;44389;51.578;5.456;2023-02-19T10:51:13;102331.72;;;9.51;100.00
58622;BME280;44389;51.578;5.456;2023-02-19T10:53:45;102339.28;;;9.48;100.00
58622;BME280;44389;51.578;5.456;2023-02-19T10:56:15;102338.84;;;9.41;100.00
58622;BME280;44389;51.578;5.456;2023-02-19T10:58:46;102342.75;;;9.34;100.00
58622;BME280;44389;51.578;5.456;2023-02-19T11:01:16;102341.50;;;9.27;100.00
58622;BME280;44389;51.578;5.456;2023-02-19T11:03:43;102341.22;;;9.22;100.00
58622;BME280;44389;51.578;5.456;2023-02-19T11:06:09;102340.94;;;9.18;100.00
58622;BME280;44389;51.578;5.456;2023-02-19T11:08:46;102336.34;;;9.12;100.00
58622;BME280;44389;51.578;5.456;2023-02-19T11:11:26;102341.47;;;9.12;100.00
58622;BME280;44389;51.578;5.456;2023-02-19T11:13:52;102344.78;;;9.25;100.00
58622;BME280;44389;51.578;5.456;2023-02-19T11:16:18;102334.84;;;9.46;100.00
58622;BME280;44389;51.578;5.456;2023-02-19T11:18:43;102338.59;;;9.66;100.00
58622;BME280;44389;51.578;5.456;2023-02-19T11:21:24;102330.91;;;9.82;100.00
58622;BME280;44389;51.578;5.456;2023-02-19T11:23:49;102328.25;;;9.96;100.00
58622;BME280;44389;51.578;5.456;2023-02-19T11:26:16;102323.22;;;10.14;100.00
58622;BME280;44389;51.578;5.456;2023-02-19T11:28:43;102319.44;;;10.38;100.00
58622;BME280;44389;51.578;5.456;2023-02-19T11:33:43;102325.13;;;11.32;100.00
58622;BME280;44389;51.578;5.456;2023-02-19T11:38:41;102320.22;;;11.20;97.85
58622;BME280;44389;51.578;5.456;2023-02-19T11:41:12;102320.16;;;11.02;96.58
58622;BME280;44389;51.578;5.456;2023-02-19T11:43:46;102322.28;;;10.93;97.00
58622;BME280;44389;51.578;5.456;2023-02-19T11:46:28;102323.00;;;10.90;98.39
58622;BME280;44389;51.578;5.456;2023-02-19T11:54:20;102325.50;;;10.24;97.25
58622;BME280;44389;51.578;5.456;2023-02-19T11:56:57;102320.88;;;10.02;99.39
58622;BME280;44389;51.578;5.456;2023-02-19T11:59:30;102327.09;;;9.91;100.00
58622;BME280;44389;51.578;5.456;2023-02-19T12:02:14;102323.91;;;9.80;100.00
58622;BME280;44389;51.578;5.456;2023-02-19T12:09:53;102320.16;;;9.89;100.00
58622;BME280;44389;51.578;5.456;2023-02-19T12:17:58;102319.97;;;10.33;98.69
58622;BME280;44389;51.578;5.456;2023-02-19T12:28:19;102322.88;;;10.08;97.19
58622;BME280;44389;51.578;5.456;2023-02-19T12:43:24;102326.59;;;10.44;96.23
58622;BME280;44389;51.578;5.456;2023-02-19T12:45:56;102326.88;;;10.34;92.39
58622;BME280;44389;51.578;5.456;2023-02-19T12:50:48;102335.09;;;10.27;96.94
58622;BME280;44389;51.578;5.456;2023-02-19T12:55:44;102334.03;;;10.23;95.66
58622;BME280;44389;51.578;5.456;2023-02-19T12:58:13;102326.94;;;10.19;92.36
58622;BME280;44389;51.578;5.456;2023-02-19T13:00:45;102329.91;;;10.10;93.73
58622;BME280;44389;51.578;5.456;2023-02-19T13:03:24;102339.06;;;10.05;95.23
58622;BME280;44389;51.578;5.456;2023-02-19T13:08:19;102361.88;;;9.99;93.14
58622;BME280;44389;51.578;5.456;2023-02-19T13:13:37;102367.69;;;9.80;93.42
58622;BME280;44389;51.578;5.456;2023-02-19T13:16:06;102358.09;;;9.77;93.68
58622;BME280;44389;51.578;5.456;2023-02-19T13:18:51;102369.28;;;9.78;95.56
58622;BME280;44389;51.578;5.456;2023-02-19T13:21:19;102376.94;;;9.76;92.68
58622;BME280;44389;51.578;5.456;2023-02-19T13:24:08;102366.28;;;9.70;94.03
58622;BME280;44389;51.578;5.456;2023-02-19T13:31:50;102375.22;;;9.62;95.92
58622;BME280;44389;51.578;5.456;2023-02-19T13:37:03;102390.59;;;9.60;96.54
58622;BME280;44389;51.578;5.456;2023-02-19T13:39:29;102395.72;;;9.60;95.19
58622;BME280;44389;51.578;5.456;2023-02-19T13:41:55;102403.00;;;9.52;93.22
58622;BME280;44389;51.578;5.456;2023-02-19T13:44:25;102394.75;;;9.43;94.87
58622;BME280;44389;51.578;5.456;2023-02-19T13:46:51;102409.28;;;9.28;92.91
58622;BME280;44389;51.578;5.456;2023-02-19T13:51:52;102412.16;;;9.04;95.47
58622;BME280;44389;51.578;5.456;2023-02-19T13:59:36;102445.81;;;8.80;96.34
58622;BME280;44389;51.578;5.456;2023-02-19T14:17:13;102446.81;;;8.29;100.00
58622;BME280;44389;51.578;5.456;2023-02-19T14:25:04;102444.16;;;8.14;100.00
58622;BME280;44389;51.578;5.456;2023-02-19T14:27:31;102451.47;;;8.07;100.00
58622;BME280;44389;51.578;5.456;2023-02-19T14:29:57;102449.38;;;8.02;100.00
58622;BME280;44389;51.578;5.456;2023-02-19T14:32:22;102450.88;;;7.98;100.00
58622;BME280;44389;51.578;5.456;2023-02-19T14:34:48;102441.28;;;7.96;100.00
58622;BME280;44389;51.578;5.456;2023-02-19T14:37:16;102441.97;;;7.93;100.00
58622;BME280;44389;51.578;5.456;2023-02-19T14:39:43;102445.00;;;7.87;100.00
58622;BME280;44389;51.578;5.456;2023-02-19T14:45:01;102435.53;;;7.86;100.00
58622;BME280;44389;51.578;5.456;2023-02-19T14:47:25;102431.19;;;7.85;100.00
58622;BME280;44389;51.578;5.456;2023-02-19T14:49:58;102445.13;;;7.89;100.00
58622;BME280;44389;51.578;5.456;2023-02-19T14:52:26;102433.34;;;7.93;100.00